sensor_id;sensor_type;location;lat;lon;timestamp;P1;durP1;ratioP1;P2;durP2;ratioP2
59518;SDS011;46994;54.976;73.404;2022-07-29T00:01:36;9.85;;;8.27;;
59518;SDS011;46994;54.976;73.404;2022-07-29T00:04:03;11.85;;;7.32;;
59518;SDS011;46994;54.976;73.404;2022-07-29T00:06:30;10.48;;;7.68;;
59518;SDS011;46994;54.976;73.404;2022-07-29T00:08:56;14.73;;;8.45;;
59518;SDS011;46994;54.976;73.404;2022-07-29T00:11:23;10.73;;;8.65;;
59518;SDS011;46994;54.976;73.404;2022-07-29T00:13:50;10.52;;;8.65;;
59518;SDS011;46994;54.976;73.404;2022-07-29T00:16:16;13.55;;;8.75;;
59518;SDS011;46994;54.976;73.404;2022-07-29T00:18:43;10.48;;;7.88;;
59518;SDS011;46994;54.976;73.404;2022-07-29T00:21:10;10.35;;;7.53;;
59518;SDS011;46994;54.976;73.404;2022-07-29T00:23:37;8.80;;;7.43;;
59518;SDS011;46994;54.976;73.404;2022-07-29T00:26:03;8.25;;;7.45;;
59518;SDS011;46994;54.976;73.404;2022-07-29T00:28:30;6.85;;;6.15;;
59518;SDS011;46994;54.976;73.404;2022-07-29T00:30:57;10.13;;;7.47;;
59518;SDS011;46994;54.976;73.404;2022-07-29T00:33:24;6.95;;;6.18;;
59518;SDS011;46994;54.976;73.404;2022-07-29T00:35:51;11.40;;;7.13;;
59518;SDS011;46994;54.976;73.404;2022-07-29T00:38:18;8.82;;;7.72;;
59518;SDS011;46994;54.976;73.404;2022-07-29T00:40:46;25.27;;;13.32;;
59518;SDS011;46994;54.976;73.404;2022-07-29T00:43:13;33.25;;;16.70;;
59518;SDS011;46994;54.976;73.404;2022-07-29T00:45:41;43.03;;;27.83;;
59518;SDS011;46994;54.976;73.404;2022-07-29T00:48:08;37.58;;;26.48;;
59518;SDS011;46994;54.976;73.404;2022-07-29T00:50:36;12.73;;;8.48;;
59518;SDS011;46994;54.976;73.404;2022-07-29T00:53:03;10.57;;;8.00;;
59518;SDS011;46994;54.976;73.404;2022-07-29T00:55:32;15.57;;;6.53;;
59518;SDS011;46994;54.976;73.404;2022-07-29T00:57:59;14.98;;;9.70;;
59518;SDS011;46994;54.976;73.404;2022-07-29T01:00:27;31.23;;;14.40;;
59518;SDS011;46994;54.976;73.404;2022-07-29T01:02:55;66.22;;;37.13;;
59518;SDS011;46994;54.976;73.404;2022-07-29T01:05:22;43.78;;;26.83;;
59518;SDS011;46994;54.976;73.404;2022-07-29T01:07:52;56.25;;;33.95;;
59518;SDS011;46994;54.976;73.404;2022-07-29T01:10:20;41.72;;;25.90;;
59518;SDS011;46994;54.976;73.404;2022-07-29T01:12:49;18.70;;;13.25;;
59518;SDS011;46994;54.976;73.404;2022-07-29T01:15:17;8.68;;;6.00;;
59518;SDS011;46994;54.976;73.404;2022-07-29T01:20:45;5.43;;;3.58;;
59518;SDS011;46994;54.976;73.404;2022-07-29T01:29:08;5.03;;;4.18;;
59518;SDS011;46994;54.976;73.404;2022-07-29T01:34:27;7.82;;;4.82;;
59518;SDS011;46994;54.976;73.404;2022-07-29T01:37:32;17.13;;;9.95;;
59518;SDS011;46994;54.976;73.404;2022-07-29T01:40:34;49.20;;;29.35;;
59518;SDS011;46994;54.976;73.404;2022-07-29T01:43:19;20.98;;;13.70;;
59518;SDS011;46994;54.976;73.404;2022-07-29T01:45:53;21.48;;;11.70;;
59518;SDS011;46994;54.976;73.404;2022-07-29T01:51:12;25.38;;;15.68;;
59518;SDS011;46994;54.976;73.404;2022-07-29T01:53:46;46.88;;;31.58;;
59518;SDS011;46994;54.976;73.404;2022-07-29T01:56:18;25.13;;;16.35;;
59518;SDS011;46994;54.976;73.404;2022-07-29T01:58:47;16.95;;;9.45;;
59518;SDS011;46994;54.976;73.404;2022-07-29T02:01:15;11.80;;;7.82;;
59518;SDS011;46994;54.976;73.404;2022-07-29T02:03:44;16.00;;;9.07;;
59518;SDS011;46994;54.976;73.404;2022-07-29T02:06:12;12.60;;;6.82;;
59518;SDS011;46994;54.976;73.404;2022-07-29T02:08:43;10.73;;;7.22;;
59518;SDS011;46994;54.976;73.404;2022-07-29T02:11:13;12.50;;;7.07;;
59518;SDS011;46994;54.976;73.404;2022-07-29T02:13:40;10.35;;;7.20;;
59518;SDS011;46994;54.976;73.404;2022-07-29T02:16:09;7.60;;;6.10;;
59518;SDS011;46994;54.976;73.404;2022-07-29T02:18:37;9.77;;;7.22;;
59518;SDS011;46994;54.976;73.404;2022-07-29T02:21:07;10.32;;;6.70;;
59518;SDS011;46994;54.976;73.404;2022-07-29T02:23:36;8.07;;;6.28;;
59518;SDS011;46994;54.976;73.404;2022-07-29T02:26:05;8.77;;;6.68;;
59518;SDS011;46994;54.976;73.404;2022-07-29T02:28:34;10.32;;;7.45;;
59518;SDS011;46994;54.976;73.404;2022-07-29T02:31:02;9.98;;;6.47;;
59518;SDS011;46994;54.976;73.404;2022-07-29T02:33:30;7.82;;;6.22;;
59518;SDS011;46994;54.976;73.404;2022-07-29T02:35:58;7.43;;;6.10;;
59518;SDS011;46994;54.976;73.404;2022-07-29T02:38:27;8.23;;;6.05;;
59518;SDS011;46994;54.976;73.404;2022-07-29T02:41:15;7.70;;;6.43;;
59518;SDS011;46994;54.976;73.404;2022-07-29T02:43:54;16.73;;;7.00;;
59518;SDS011;46994;54.976;73.404;2022-07-29T02:46:25;9.40;;;6.22;;
59518;SDS011;46994;54.976;73.404;2022-07-29T02:49:10;11.57;;;6.03;;
59518;SDS011;46994;54.976;73.404;2022-07-29T02:51:43;7.38;;;5.90;;
59518;SDS011;46994;54.976;73.404;2022-07-29T02:56:59;6.70;;;4.80;;
59518;SDS011;46994;54.976;73.404;2022-07-29T02:59:28;11.32;;;5.40;;
59518;SDS011;46994;54.976;73.404;2022-07-29T03:02:00;8.52;;;5.00;;
59518;SDS011;46994;54.976;73.404;2022-07-29T03:04:30;6.55;;;3.85;;
59518;SDS011;46994;54.976;73.404;2022-07-29T03:06:59;6.78;;;4.30;;
59518;SDS011;46994;54.976;73.404;2022-07-29T03:09:26;5.47;;;4.15;;
59518;SDS011;46994;54.976;73.404;2022-07-29T03:11:54;5.32;;;4.28;;
59518;SDS011;46994;54.976;73.404;2022-07-29T03:14:22;5.22;;;3.38;;
59518;SDS011;46994;54.976;73.404;2022-07-29T03:16:50;9.98;;;3.45;;
59518;SDS011;46994;54.976;73.404;2022-07-29T03:19:18;4.93;;;3.60;;
59518;SDS011;46994;54.976;73.404;2022-07-29T03:21:46;3.38;;;3.08;;
59518;SDS011;46994;54.976;73.404;2022-07-29T03:24:25;6.45;;;3.47;;
59518;SDS011;46994;54.976;73.404;2022-07-29T03:26:52;4.57;;;3.58;;
59518;SDS011;46994;54.976;73.404;2022-07-29T03:29:20;4.78;;;3.42;;
59518;SDS011;46994;54.976;73.404;2022-07-29T03:31:47;4.32;;;2.80;;
59518;SDS011;46994;54.976;73.404;2022-07-29T03:34:13;5.63;;;3.72;;
59518;SDS011;46994;54.976;73.404;2022-07-29T03:36:40;5.55;;;3.25;;
59518;SDS011;46994;54.976;73.404;2022-07-29T03:39:07;6.28;;;3.30;;
59518;SDS011;46994;54.976;73.404;2022-07-29T03:41:35;5.60;;;3.70;;
59518;SDS011;46994;54.976;73.404;2022-07-29T03:44:05;7.80;;;3.38;;
59518;SDS011;46994;54.976;73.404;2022-07-29T03:46:33;5.00;;;3.47;;
59518;SDS011;46994;54.976;73.404;2022-07-29T03:49:02;3.50;;;2.92;;
59518;SDS011;46994;54.976;73.404;2022-07-29T03:51:30;3.50;;;3.17;;
59518;SDS011;46994;54.976;73.404;2022-07-29T03:53:57;4.40;;;2.63;;
59518;SDS011;46994;54.976;73.404;2022-07-29T03:56:24;2.95;;;2.70;;
59518;SDS011;46994;54.976;73.404;2022-07-29T03:58:53;4.03;;;2.85;;
59518;SDS011;46994;54.976;73.404;2022-07-29T04:01:21;3.47;;;2.53;;
59518;SDS011;46994;54.976;73.404;2022-07-29T04:03:49;4.72;;;3.10;;
59518;SDS011;46994;54.976;73.404;2022-07-29T04:06:17;5.38;;;3.05;;
59518;SDS011;46994;54.976;73.404;2022-07-29T04:08:44;5.63;;;3.90;;
59518;SDS011;46994;54.976;73.404;2022-07-29T04:11:10;9.90;;;4.78;;
59518;SDS011;46994;54.976;73.404;2022-07-29T04:13:37;12.40;;;5.50;;
59518;SDS011;46994;54.976;73.404;2022-07-29T04:16:04;13.93;;;5.55;;
59518;SDS011;46994;54.976;73.404;2022-07-29T04:18:31;15.32;;;7.28;;
59518;SDS011;46994;54.976;73.404;2022-07-29T04:20:57;11.20;;;6.82;;
59518;SDS011;46994;54.976;73.404;2022-07-29T04:23:27;16.88;;;7.18;;
59518;SDS011;46994;54.976;73.404;2022-07-29T04:25:58;13.70;;;7.90;;
59518;SDS011;46994;54.976;73.404;2022-07-29T04:28:27;13.18;;;8.57;;
59518;SDS011;46994;54.976;73.404;2022-07-29T04:30:53;21.67;;;10.18;;
59518;SDS011;46994;54.976;73.404;2022-07-29T04:33:20;16.52;;;10.00;;
59518;SDS011;46994;54.976;73.404;2022-07-29T04:35:47;16.88;;;9.32;;
59518;SDS011;46994;54.976;73.404;2022-07-29T04:38:13;16.88;;;10.57;;
59518;SDS011;46994;54.976;73.404;2022-07-29T04:40:40;16.27;;;10.68;;
59518;SDS011;46994;54.976;73.404;2022-07-29T04:43:07;20.45;;;11.68;;
59518;SDS011;46994;54.976;73.404;2022-07-29T04:45:33;21.35;;;11.68;;
59518;SDS011;46994;54.976;73.404;2022-07-29T04:48:00;25.30;;;13.27;;
59518;SDS011;46994;54.976;73.404;2022-07-29T04:50:27;15.75;;;13.02;;
59518;SDS011;46994;54.976;73.404;2022-07-29T04:52:54;17.48;;;12.40;;
59518;SDS011;46994;54.976;73.404;2022-07-29T04:55:20;26.25;;;12.75;;
59518;SDS011;46994;54.976;73.404;2022-07-29T04:57:47;23.15;;;12.75;;
59518;SDS011;46994;54.976;73.404;2022-07-29T05:00:14;18.05;;;12.88;;
59518;SDS011;46994;54.976;73.404;2022-07-29T05:02:41;20.20;;;12.80;;
59518;SDS011;46994;54.976;73.404;2022-07-29T05:05:08;17.23;;;11.73;;
59518;SDS011;46994;54.976;73.404;2022-07-29T05:07:35;21.30;;;12.98;;
59518;SDS011;46994;54.976;73.404;2022-07-29T05:10:02;17.45;;;12.48;;
59518;SDS011;46994;54.976;73.404;2022-07-29T05:12:29;17.55;;;12.63;;
59518;SDS011;46994;54.976;73.404;2022-07-29T05:14:56;31.73;;;12.43;;
59518;SDS011;46994;54.976;73.404;2022-07-29T05:17:22;26.08;;;11.93;;
59518;SDS011;46994;54.976;73.404;2022-07-29T05:19:49;30.35;;;13.70;;
59518;SDS011;46994;54.976;73.404;2022-07-29T05:22:20;16.95;;;12.23;;
59518;SDS011;46994;54.976;73.404;2022-07-29T05:24:47;17.05;;;10.55;;
59518;SDS011;46994;54.976;73.404;2022-07-29T05:27:14;19.27;;;11.60;;
59518;SDS011;46994;54.976;73.404;2022-07-29T05:29:40;16.08;;;11.07;;
59518;SDS011;46994;54.976;73.404;2022-07-29T05:32:07;17.33;;;11.40;;
59518;SDS011;46994;54.976;73.404;2022-07-29T05:34:34;19.98;;;10.45;;
59518;SDS011;46994;54.976;73.404;2022-07-29T05:37:01;21.52;;;10.70;;
59518;SDS011;46994;54.976;73.404;2022-07-29T05:39:27;21.30;;;10.27;;
59518;SDS011;46994;54.976;73.404;2022-07-29T05:41:54;17.13;;;10.75;;
59518;SDS011;46994;54.976;73.404;2022-07-29T05:44:21;21.17;;;10.43;;
59518;SDS011;46994;54.976;73.404;2022-07-29T05:46:48;19.23;;;10.48;;
59518;SDS011;46994;54.976;73.404;2022-07-29T05:49:14;18.70;;;10.00;;
59518;SDS011;46994;54.976;73.404;2022-07-29T05:51:41;17.55;;;9.43;;
59518;SDS011;46994;54.976;73.404;2022-07-29T05:54:08;15.68;;;9.82;;
59518;SDS011;46994;54.976;73.404;2022-07-29T05:56:35;18.00;;;9.45;;
59518;SDS011;46994;54.976;73.404;2022-07-29T05:59:02;11.98;;;8.93;;
59518;SDS011;46994;54.976;73.404;2022-07-29T06:01:29;24.48;;;9.98;;
59518;SDS011;46994;54.976;73.404;2022-07-29T06:03:56;20.95;;;9.27;;
59518;SDS011;46994;54.976;73.404;2022-07-29T06:06:22;18.35;;;9.43;;
59518;SDS011;46994;54.976;73.404;2022-07-29T06:08:49;17.88;;;9.25;;
59518;SDS011;46994;54.976;73.404;2022-07-29T06:11:16;19.88;;;8.88;;
59518;SDS011;46994;54.976;73.404;2022-07-29T06:13:42;18.05;;;8.82;;
59518;SDS011;46994;54.976;73.404;2022-07-29T06:16:09;11.45;;;8.23;;
59518;SDS011;46994;54.976;73.404;2022-07-29T06:18:36;14.85;;;8.60;;
59518;SDS011;46994;54.976;73.404;2022-07-29T06:21:06;16.42;;;8.23;;
59518;SDS011;46994;54.976;73.404;2022-07-29T06:23:35;18.95;;;8.23;;
59518;SDS011;46994;54.976;73.404;2022-07-29T06:26:05;22.02;;;8.65;;
59518;SDS011;46994;54.976;73.404;2022-07-29T06:28:32;21.15;;;8.05;;
59518;SDS011;46994;54.976;73.404;2022-07-29T06:30:59;11.73;;;8.80;;
59518;SDS011;46994;54.976;73.404;2022-07-29T06:33:26;15.00;;;8.65;;
59518;SDS011;46994;54.976;73.404;2022-07-29T06:35:52;15.45;;;7.88;;
59518;SDS011;46994;54.976;73.404;2022-07-29T06:38:19;12.23;;;8.40;;
59518;SDS011;46994;54.976;73.404;2022-07-29T06:40:46;28.77;;;7.68;;
59518;SDS011;46994;54.976;73.404;2022-07-29T06:43:29;15.60;;;7.70;;
59518;SDS011;46994;54.976;73.404;2022-07-29T06:46:01;14.77;;;8.07;;
59518;SDS011;46994;54.976;73.404;2022-07-29T06:48:33;14.50;;;8.13;;
59518;SDS011;46994;54.976;73.404;2022-07-29T06:51:02;17.83;;;8.20;;
59518;SDS011;46994;54.976;73.404;2022-07-29T06:53:30;18.77;;;8.27;;
59518;SDS011;46994;54.976;73.404;2022-07-29T06:55:58;18.85;;;7.93;;
59518;SDS011;46994;54.976;73.404;2022-07-29T06:58:26;14.45;;;7.45;;
59518;SDS011;46994;54.976;73.404;2022-07-29T07:01:00;10.07;;;6.95;;
59518;SDS011;46994;54.976;73.404;2022-07-29T07:03:28;18.17;;;7.72;;
59518;SDS011;46994;54.976;73.404;2022-07-29T07:05:55;17.27;;;7.45;;
59518;SDS011;46994;54.976;73.404;2022-07-29T07:08:22;20.90;;;8.23;;
59518;SDS011;46994;54.976;73.404;2022-07-29T07:10:50;15.25;;;7.40;;
59518;SDS011;46994;54.976;73.404;2022-07-29T07:13:17;13.52;;;6.93;;
59518;SDS011;46994;54.976;73.404;2022-07-29T07:15:44;19.73;;;7.03;;
59518;SDS011;46994;54.976;73.404;2022-07-29T07:18:14;13.70;;;8.27;;
59518;SDS011;46994;54.976;73.404;2022-07-29T07:20:42;13.13;;;7.60;;
59518;SDS011;46994;54.976;73.404;2022-07-29T07:23:09;30.10;;;14.95;;
59518;SDS011;46994;54.976;73.404;2022-07-29T07:25:36;23.40;;;12.15;;
59518;SDS011;46994;54.976;73.404;2022-07-29T07:28:03;13.90;;;9.73;;
59518;SDS011;46994;54.976;73.404;2022-07-29T07:30:29;14.63;;;7.65;;
59518;SDS011;46994;54.976;73.404;2022-07-29T07:32:57;18.55;;;7.78;;
59518;SDS011;46994;54.976;73.404;2022-07-29T07:35:23;13.60;;;7.80;;
59518;SDS011;46994;54.976;73.404;2022-07-29T07:37:50;22.83;;;7.88;;
59518;SDS011;46994;54.976;73.404;2022-07-29T07:40:17;20.77;;;7.32;;
59518;SDS011;46994;54.976;73.404;2022-07-29T07:42:44;12.55;;;6.75;;
59518;SDS011;46994;54.976;73.404;2022-07-29T07:45:11;12.13;;;6.82;;
59518;SDS011;46994;54.976;73.404;2022-07-29T07:47:38;19.08;;;7.38;;
59518;SDS011;46994;54.976;73.404;2022-07-29T07:50:06;22.13;;;7.18;;
59518;SDS011;46994;54.976;73.404;2022-07-29T07:52:37;18.20;;;7.03;;
59518;SDS011;46994;54.976;73.404;2022-07-29T07:55:13;25.85;;;7.53;;
59518;SDS011;46994;54.976;73.404;2022-07-29T07:57:39;11.77;;;6.45;;
59518;SDS011;46994;54.976;73.404;2022-07-29T08:00:06;13.48;;;7.78;;
59518;SDS011;46994;54.976;73.404;2022-07-29T08:02:38;34.05;;;7.93;;
59518;SDS011;46994;54.976;73.404;2022-07-29T08:05:06;11.15;;;6.72;;
59518;SDS011;46994;54.976;73.404;2022-07-29T08:07:34;13.27;;;7.15;;
59518;SDS011;46994;54.976;73.404;2022-07-29T08:10:01;10.20;;;7.05;;
59518;SDS011;46994;54.976;73.404;2022-07-29T08:12:28;13.13;;;7.88;;
59518;SDS011;46994;54.976;73.404;2022-07-29T08:14:54;14.27;;;7.03;;
59518;SDS011;46994;54.976;73.404;2022-07-29T08:17:21;11.25;;;7.22;;
59518;SDS011;46994;54.976;73.404;2022-07-29T08:19:48;8.43;;;6.68;;
59518;SDS011;46994;54.976;73.404;2022-07-29T08:22:15;15.93;;;6.80;;
59518;SDS011;46994;54.976;73.404;2022-07-29T08:24:42;27.08;;;6.68;;
59518;SDS011;46994;54.976;73.404;2022-07-29T08:27:09;17.70;;;7.18;;
59518;SDS011;46994;54.976;73.404;2022-07-29T08:29:37;12.05;;;6.30;;
59518;SDS011;46994;54.976;73.404;2022-07-29T08:32:04;8.32;;;6.22;;
59518;SDS011;46994;54.976;73.404;2022-07-29T08:34:31;19.35;;;6.28;;
59518;SDS011;46994;54.976;73.404;2022-07-29T08:36:58;17.75;;;7.25;;
59518;SDS011;46994;54.976;73.404;2022-07-29T08:39:25;13.70;;;7.07;;
59518;SDS011;46994;54.976;73.404;2022-07-29T08:41:52;17.58;;;6.40;;
59518;SDS011;46994;54.976;73.404;2022-07-29T08:44:21;9.50;;;6.20;;
59518;SDS011;46994;54.976;73.404;2022-07-29T08:46:48;17.17;;;6.28;;
59518;SDS011;46994;54.976;73.404;2022-07-29T08:49:16;35.60;;;10.65;;
59518;SDS011;46994;54.976;73.404;2022-07-29T08:51:44;12.75;;;7.35;;
59518;SDS011;46994;54.976;73.404;2022-07-29T08:54:11;16.50;;;7.20;;
59518;SDS011;46994;54.976;73.404;2022-07-29T08:56:44;14.20;;;6.60;;
59518;SDS011;46994;54.976;73.404;2022-07-29T08:59:15;11.90;;;6.13;;
59518;SDS011;46994;54.976;73.404;2022-07-29T09:01:45;14.35;;;6.45;;
59518;SDS011;46994;54.976;73.404;2022-07-29T09:04:14;16.25;;;6.72;;
59518;SDS011;46994;54.976;73.404;2022-07-29T09:06:42;19.48;;;6.85;;
59518;SDS011;46994;54.976;73.404;2022-07-29T09:09:11;44.65;;;10.15;;
59518;SDS011;46994;54.976;73.404;2022-07-29T09:11:40;17.73;;;7.97;;
59518;SDS011;46994;54.976;73.404;2022-07-29T09:14:07;12.40;;;7.18;;
59518;SDS011;46994;54.976;73.404;2022-07-29T09:19:24;71.05;;;14.80;;
59518;SDS011;46994;54.976;73.404;2022-07-29T09:21:56;33.13;;;11.82;;
59518;SDS011;46994;54.976;73.404;2022-07-29T09:24:26;35.03;;;9.43;;
59518;SDS011;46994;54.976;73.404;2022-07-29T09:27:08;13.80;;;6.72;;
59518;SDS011;46994;54.976;73.404;2022-07-29T09:29:58;16.80;;;6.70;;
59518;SDS011;46994;54.976;73.404;2022-07-29T09:32:26;13.02;;;6.57;;
59518;SDS011;46994;54.976;73.404;2022-07-29T09:37:44;22.58;;;6.47;;
59518;SDS011;46994;54.976;73.404;2022-07-29T09:40:15;13.13;;;6.03;;
59518;SDS011;46994;54.976;73.404;2022-07-29T09:42:43;14.30;;;6.50;;
59518;SDS011;46994;54.976;73.404;2022-07-29T09:45:11;22.52;;;6.82;;
59518;SDS011;46994;54.976;73.404;2022-07-29T09:47:44;24.00;;;6.45;;
59518;SDS011;46994;54.976;73.404;2022-07-29T09:50:15;11.15;;;6.20;;
59518;SDS011;46994;54.976;73.404;2022-07-29T09:52:46;15.35;;;6.28;;
59518;SDS011;46994;54.976;73.404;2022-07-29T09:55:14;16.98;;;6.65;;
59518;SDS011;46994;54.976;73.404;2022-07-29T09:57:42;12.85;;;6.35;;
59518;SDS011;46994;54.976;73.404;2022-07-29T10:00:11;16.20;;;6.40;;
59518;SDS011;46994;54.976;73.404;2022-07-29T10:02:39;14.02;;;6.10;;
59518;SDS011;46994;54.976;73.404;2022-07-29T10:05:16;14.90;;;6.95;;
59518;SDS011;46994;54.976;73.404;2022-07-29T10:07:46;22.02;;;7.10;;
59518;SDS011;46994;54.976;73.404;2022-07-29T10:10:24;12.40;;;6.63;;
59518;SDS011;46994;54.976;73.404;2022-07-29T10:12:54;15.65;;;7.28;;
59518;SDS011;46994;54.976;73.404;2022-07-29T10:15:23;14.50;;;7.20;;
59518;SDS011;46994;54.976;73.404;2022-07-29T10:17:52;12.07;;;5.85;;
59518;SDS011;46994;54.976;73.404;2022-07-29T10:20:21;17.10;;;7.28;;
59518;SDS011;46994;54.976;73.404;2022-07-29T10:22:49;8.80;;;6.55;;
59518;SDS011;46994;54.976;73.404;2022-07-29T10:25:17;26.65;;;7.00;;
59518;SDS011;46994;54.976;73.404;2022-07-29T10:27:45;13.27;;;8.23;;
59518;SDS011;46994;54.976;73.404;2022-07-29T10:30:14;15.88;;;7.72;;
59518;SDS011;46994;54.976;73.404;2022-07-29T10:32:48;15.13;;;8.23;;
59518;SDS011;46994;54.976;73.404;2022-07-29T10:35:39;21.50;;;6.45;;
59518;SDS011;46994;54.976;73.404;2022-07-29T10:38:19;29.52;;;6.82;;
59518;SDS011;46994;54.976;73.404;2022-07-29T10:43:56;16.75;;;7.20;;
59518;SDS011;46994;54.976;73.404;2022-07-29T10:46:36;7.38;;;6.68;;
59518;SDS011;46994;54.976;73.404;2022-07-29T10:49:09;15.00;;;6.97;;
59518;SDS011;46994;54.976;73.404;2022-07-29T11:00:21;14.20;;;6.68;;
59518;SDS011;46994;54.976;73.404;2022-07-29T11:05:06;14.63;;;7.05;;
59518;SDS011;46994;54.976;73.404;2022-07-29T11:07:35;16.10;;;6.60;;
59518;SDS011;46994;54.976;73.404;2022-07-29T11:18:28;15.98;;;6.65;;
59518;SDS011;46994;54.976;73.404;2022-07-29T11:20:55;9.70;;;6.00;;
59518;SDS011;46994;54.976;73.404;2022-07-29T11:23:29;11.57;;;6.90;;
59518;SDS011;46994;54.976;73.404;2022-07-29T11:28:39;19.45;;;7.63;;
59518;SDS011;46994;54.976;73.404;2022-07-29T11:31:08;21.53;;;6.10;;
59518;SDS011;46994;54.976;73.404;2022-07-29T11:33:37;23.42;;;6.93;;
59518;SDS011;46994;54.976;73.404;2022-07-29T11:36:09;13.02;;;5.68;;
59518;SDS011;46994;54.976;73.404;2022-07-29T11:38:40;22.45;;;6.45;;
59518;SDS011;46994;54.976;73.404;2022-07-29T11:41:23;13.25;;;6.90;;
59518;SDS011;46994;54.976;73.404;2022-07-29T11:44:01;13.73;;;5.70;;
59518;SDS011;46994;54.976;73.404;2022-07-29T11:46:47;8.77;;;6.00;;
59518;SDS011;46994;54.976;73.404;2022-07-29T11:49:21;14.45;;;6.03;;
59518;SDS011;46994;54.976;73.404;2022-07-29T11:51:54;10.93;;;6.22;;
59518;SDS011;46994;54.976;73.404;2022-07-29T11:54:29;24.48;;;6.47;;
59518;SDS011;46994;54.976;73.404;2022-07-29T11:56:58;18.73;;;5.82;;
59518;SDS011;46994;54.976;73.404;2022-07-29T11:59:25;10.35;;;5.35;;
59518;SDS011;46994;54.976;73.404;2022-07-29T12:01:53;14.18;;;5.88;;
59518;SDS011;46994;54.976;73.404;2022-07-29T12:04:21;12.20;;;4.97;;
59518;SDS011;46994;54.976;73.404;2022-07-29T12:06:50;12.00;;;5.18;;
59518;SDS011;46994;54.976;73.404;2022-07-29T12:09:17;10.52;;;5.82;;
59518;SDS011;46994;54.976;73.404;2022-07-29T12:11:45;16.98;;;5.60;;
59518;SDS011;46994;54.976;73.404;2022-07-29T12:14:29;21.38;;;6.15;;
59518;SDS011;46994;54.976;73.404;2022-07-29T12:16:58;7.25;;;5.15;;
59518;SDS011;46994;54.976;73.404;2022-07-29T12:19:26;8.98;;;5.32;;
59518;SDS011;46994;54.976;73.404;2022-07-29T12:21:53;8.82;;;5.47;;
59518;SDS011;46994;54.976;73.404;2022-07-29T12:24:21;18.15;;;5.20;;
59518;SDS011;46994;54.976;73.404;2022-07-29T12:26:49;40.40;;;8.52;;
59518;SDS011;46994;54.976;73.404;2022-07-29T12:29:22;13.63;;;4.47;;
59518;SDS011;46994;54.976;73.404;2022-07-29T12:31:53;9.93;;;3.97;;
59518;SDS011;46994;54.976;73.404;2022-07-29T12:34:20;11.15;;;6.13;;
59518;SDS011;46994;54.976;73.404;2022-07-29T12:36:50;21.17;;;7.50;;
59518;SDS011;46994;54.976;73.404;2022-07-29T12:39:16;13.32;;;6.05;;
59518;SDS011;46994;54.976;73.404;2022-07-29T12:41:44;7.72;;;4.97;;
59518;SDS011;46994;54.976;73.404;2022-07-29T12:44:11;15.65;;;5.25;;
59518;SDS011;46994;54.976;73.404;2022-07-29T12:46:38;7.80;;;5.03;;
59518;SDS011;46994;54.976;73.404;2022-07-29T12:49:05;20.92;;;4.60;;
59518;SDS011;46994;54.976;73.404;2022-07-29T12:51:35;13.02;;;4.53;;
59518;SDS011;46994;54.976;73.404;2022-07-29T12:54:04;17.73;;;5.93;;
59518;SDS011;46994;54.976;73.404;2022-07-29T12:56:42;13.25;;;4.75;;
59518;SDS011;46994;54.976;73.404;2022-07-29T12:59:11;9.10;;;4.10;;
59518;SDS011;46994;54.976;73.404;2022-07-29T13:01:45;10.88;;;4.60;;
59518;SDS011;46994;54.976;73.404;2022-07-29T13:04:28;7.75;;;3.95;;
59518;SDS011;46994;54.976;73.404;2022-07-29T13:09:37;25.05;;;4.60;;
59518;SDS011;46994;54.976;73.404;2022-07-29T13:12:07;10.50;;;4.78;;
59518;SDS011;46994;54.976;73.404;2022-07-29T13:14:47;16.48;;;4.50;;
59518;SDS011;46994;54.976;73.404;2022-07-29T13:19:44;15.48;;;4.43;;
59518;SDS011;46994;54.976;73.404;2022-07-29T13:22:13;14.57;;;4.57;;
59518;SDS011;46994;54.976;73.404;2022-07-29T13:24:48;16.15;;;4.18;;
59518;SDS011;46994;54.976;73.404;2022-07-29T13:27:19;10.95;;;3.92;;
59518;SDS011;46994;54.976;73.404;2022-07-29T13:29:47;3.95;;;3.65;;
59518;SDS011;46994;54.976;73.404;2022-07-29T13:32:17;7.80;;;3.33;;
59518;SDS011;46994;54.976;73.404;2022-07-29T13:34:43;5.60;;;3.25;;
59518;SDS011;46994;54.976;73.404;2022-07-29T13:37:10;16.00;;;5.45;;
59518;SDS011;46994;54.976;73.404;2022-07-29T13:39:37;8.57;;;5.15;;
59518;SDS011;46994;54.976;73.404;2022-07-29T13:42:04;11.23;;;4.40;;
59518;SDS011;46994;54.976;73.404;2022-07-29T13:44:32;9.18;;;3.65;;
59518;SDS011;46994;54.976;73.404;2022-07-29T13:46:59;12.93;;;4.03;;
59518;SDS011;46994;54.976;73.404;2022-07-29T13:49:25;14.07;;;3.83;;
59518;SDS011;46994;54.976;73.404;2022-07-29T13:51:53;9.10;;;3.35;;
59518;SDS011;46994;54.976;73.404;2022-07-29T13:54:20;18.48;;;3.85;;
59518;SDS011;46994;54.976;73.404;2022-07-29T13:56:46;14.18;;;3.50;;
59518;SDS011;46994;54.976;73.404;2022-07-29T13:59:13;7.45;;;3.60;;
59518;SDS011;46994;54.976;73.404;2022-07-29T14:01:40;10.15;;;3.80;;
59518;SDS011;46994;54.976;73.404;2022-07-29T14:04:08;7.65;;;3.55;;
59518;SDS011;46994;54.976;73.404;2022-07-29T14:06:36;7.68;;;3.67;;
59518;SDS011;46994;54.976;73.404;2022-07-29T14:09:03;11.10;;;3.92;;
59518;SDS011;46994;54.976;73.404;2022-07-29T14:11:35;12.50;;;4.25;;
59518;SDS011;46994;54.976;73.404;2022-07-29T14:14:02;8.95;;;4.43;;
59518;SDS011;46994;54.976;73.404;2022-07-29T14:16:28;10.48;;;4.60;;
59518;SDS011;46994;54.976;73.404;2022-07-29T14:18:55;22.73;;;4.25;;
59518;SDS011;46994;54.976;73.404;2022-07-29T14:21:22;12.60;;;4.40;;
59518;SDS011;46994;54.976;73.404;2022-07-29T14:23:49;16.38;;;4.40;;
59518;SDS011;46994;54.976;73.404;2022-07-29T14:26:15;16.13;;;3.83;;
59518;SDS011;46994;54.976;73.404;2022-07-29T14:28:42;7.25;;;3.92;;
59518;SDS011;46994;54.976;73.404;2022-07-29T14:31:10;7.85;;;4.07;;
59518;SDS011;46994;54.976;73.404;2022-07-29T14:33:37;14.32;;;4.65;;
59518;SDS011;46994;54.976;73.404;2022-07-29T14:36:04;14.93;;;4.40;;
59518;SDS011;46994;54.976;73.404;2022-07-29T14:38:30;8.13;;;3.55;;
59518;SDS011;46994;54.976;73.404;2022-07-29T14:40:57;11.88;;;4.93;;
59518;SDS011;46994;54.976;73.404;2022-07-29T14:43:24;9.85;;;4.70;;
59518;SDS011;46994;54.976;73.404;2022-07-29T14:45:50;14.35;;;4.53;;
59518;SDS011;46994;54.976;73.404;2022-07-29T14:48:17;11.63;;;5.18;;
59518;SDS011;46994;54.976;73.404;2022-07-29T14:50:44;10.50;;;4.90;;
59518;SDS011;46994;54.976;73.404;2022-07-29T14:53:11;9.85;;;4.45;;
59518;SDS011;46994;54.976;73.404;2022-07-29T14:55:40;15.68;;;5.88;;
59518;SDS011;46994;54.976;73.404;2022-07-29T14:58:08;10.57;;;4.68;;
59518;SDS011;46994;54.976;73.404;2022-07-29T15:00:35;14.38;;;4.05;;
59518;SDS011;46994;54.976;73.404;2022-07-29T15:03:03;12.40;;;5.00;;
59518;SDS011;46994;54.976;73.404;2022-07-29T15:05:31;11.23;;;5.88;;
59518;SDS011;46994;54.976;73.404;2022-07-29T15:07:58;11.75;;;4.68;;
59518;SDS011;46994;54.976;73.404;2022-07-29T15:10:25;13.18;;;6.50;;
59518;SDS011;46994;54.976;73.404;2022-07-29T15:12:53;8.82;;;5.47;;
59518;SDS011;46994;54.976;73.404;2022-07-29T15:15:20;8.02;;;4.25;;
59518;SDS011;46994;54.976;73.404;2022-07-29T15:17:47;17.08;;;7.43;;
59518;SDS011;46994;54.976;73.404;2022-07-29T15:20:14;7.22;;;4.45;;
59518;SDS011;46994;54.976;73.404;2022-07-29T15:22:41;18.00;;;4.28;;
59518;SDS011;46994;54.976;73.404;2022-07-29T15:25:09;11.05;;;4.57;;
59518;SDS011;46994;54.976;73.404;2022-07-29T15:27:36;9.80;;;4.30;;